createdAt,value
2023-03-19T00:02:16.531Z,69.20
2023-03-19T00:04:44.893Z,68.96
2023-03-19T00:07:11.557Z,69.01
2023-03-19T00:09:38.425Z,69.11
2023-03-19T00:12:05.386Z,68.96
2023-03-19T00:14:31.999Z,68.87
2023-03-19T00:16:58.670Z,68.91
2023-03-19T00:19:25.426Z,68.93
2023-03-19T00:21:52.271Z,68.91
2023-03-19T00:24:18.871Z,68.99
2023-03-19T00:26:45.545Z,68.75
2023-03-19T00:29:12.879Z,68.53
2023-03-19T00:31:40.769Z,68.64
2023-03-19T00:34:08.286Z,68.68
2023-03-19T00:36:35.050Z,68.50
2023-03-19T00:39:02.149Z,68.43
2023-03-19T00:41:29.036Z,68.58
2023-03-19T00:43:57.017Z,68.40
2023-03-19T00:46:24.735Z,68.44
2023-03-19T00:48:55.526Z,68.21
2023-03-19T00:51:23.507Z,68.15
2023-03-19T00:53:50.813Z,67.93
2023-03-19T00:56:20.721Z,68.01
2023-03-19T00:58:47.327Z,68.07
2023-03-19T01:01:16.424Z,68.34
2023-03-19T01:03:43.623Z,68.48
2023-03-19T01:06:10.343Z,68.41
2023-03-19T01:08:37.101Z,68.53
2023-03-19T01:11:13.016Z,68.54
2023-03-19T01:13:39.830Z,68.45
2023-03-19T01:16:07.093Z,68.72
2023-03-19T01:18:33.646Z,68.64
2023-03-19T01:21:01.271Z,68.82
2023-03-19T01:23:31.229Z,68.55
2023-03-19T01:25:58.277Z,68.66
2023-03-19T01:28:26.527Z,68.68
2023-03-19T01:30:53.429Z,68.45
2023-03-19T01:33:46.657Z,69.09
2023-03-19T01:36:35.861Z,68.99
2023-03-19T01:39:04.957Z,69.07
2023-03-19T01:41:31.865Z,69.10
2023-03-19T01:44:28.109Z,69.16
2023-03-19T01:47:18.359Z,69.46
2023-03-19T01:50:03.966Z,69.68
2023-03-19T01:52:32.598Z,69.53
2023-03-19T01:55:14.174Z,69.83
2023-03-19T01:58:07.110Z,69.43
2023-03-19T02:00:53.065Z,69.56
2023-03-19T02:03:19.797Z,69.61
2023-03-19T02:05:52.536Z,70.02
2023-03-19T02:08:23.119Z,69.88
2023-03-19T02:10:50.557Z,69.90
2023-03-19T02:13:17.175Z,69.93
2023-03-19T02:15:43.911Z,69.91
2023-03-19T02:18:10.702Z,69.75
2023-03-19T02:21:04.148Z,69.80
2023-03-19T02:23:39.759Z,69.81
2023-03-19T02:26:18.766Z,69.69
2023-03-19T02:28:48.813Z,69.57
2023-03-19T02:31:20.821Z,69.67
2023-03-19T02:34:13.826Z,69.50
2023-03-19T02:36:46.498Z,69.50
2023-03-19T02:39:26.441Z,69.84
2023-03-19T02:41:54.748Z,69.57
2023-03-19T02:44:23.184Z,69.73
2023-03-19T02:46:50.867Z,69.33
2023-03-19T02:49:17.757Z,69.44
2023-03-19T02:51:44.419Z,69.24
2023-03-19T02:54:11.185Z,69.10
2023-03-19T02:56:37.849Z,68.81
2023-03-19T02:59:05.210Z,68.96
2023-03-19T03:01:31.824Z,69.21
2023-03-19T03:03:58.430Z,69.03
2023-03-19T03:06:24.996Z,69.23
2023-03-19T03:08:52.234Z,69.11
2023-03-19T03:11:18.788Z,68.75
2023-03-19T03:13:45.352Z,68.68
2023-03-19T03:16:12.721Z,68.40
2023-03-19T03:18:39.356Z,68.76
2023-03-19T03:21:05.994Z,68.82
2023-03-19T03:23:33.076Z,69.24
2023-03-19T03:25:59.666Z,69.34
2023-03-19T03:28:26.284Z,69.85
2023-03-19T03:30:59.042Z,69.31
2023-03-19T03:33:25.688Z,68.34
2023-03-19T03:35:52.549Z,68.55
2023-03-19T03:38:19.263Z,69.14
2023-03-19T03:40:46.091Z,69.09
2023-03-19T03:43:12.732Z,68.84
2023-03-19T03:45:39.690Z,68.80
2023-03-19T03:48:07.208Z,69.59
2023-03-19T03:50:34.236Z,69.60
2023-03-19T03:53:05.929Z,69.52
2023-03-19T03:55:33.144Z,69.71
2023-03-19T03:57:59.840Z,69.89
2023-03-19T04:00:26.728Z,70.18
2023-03-19T04:02:53.354Z,69.87
2023-03-19T04:05:19.963Z,69.96
2023-03-19T04:07:47.021Z,70.35
2023-03-19T04:10:14.245Z,70.58
2023-03-19T04:12:41.517Z,70.53
2023-03-19T04:15:10.978Z,70.81
2023-03-19T04:17:40.552Z,70.54
2023-03-19T04:20:07.800Z,70.60
2023-03-19T04:22:34.470Z,71.43
2023-03-19T04:25:01.261Z,71.66
2023-03-19T04:27:27.931Z,71.62
2023-03-19T04:29:54.853Z,71.96
2023-03-19T04:32:22.206Z,72.48
2023-03-19T04:34:49.199Z,72.76
2023-03-19T04:37:16.102Z,72.94
2023-03-19T04:39:47.834Z,72.98
2023-03-19T04:42:15.490Z,73.13
2023-03-19T04:44:48.691Z,74.75
2023-03-19T04:47:16.465Z,76.43
2023-03-19T04:49:53.054Z,78.51
2023-03-19T04:52:20.744Z,80.38
2023-03-19T04:54:48.820Z,80.33
2023-03-19T04:57:15.859Z,79.31
2023-03-19T04:59:44.091Z,79.39
2023-03-19T05:02:13.455Z,78.82
2023-03-19T05:04:41.222Z,78.02
2023-03-19T05:07:11.585Z,79.46
2023-03-19T05:09:38.161Z,81.52
2023-03-19T05:12:05.010Z,82.17
2023-03-19T05:14:37.405Z,83.84
2023-03-19T05:17:18.228Z,88.30
2023-03-19T05:20:05.193Z,91.46
2023-03-19T05:22:33.227Z,91.34
2023-03-19T05:25:00.210Z,88.35
2023-03-19T05:27:28.511Z,86.96
2023-03-19T05:30:02.705Z,86.43
2023-03-19T05:32:44.427Z,85.65
2023-03-19T05:35:18.469Z,84.08
2023-03-19T05:37:46.036Z,84.05
2023-03-19T05:40:13.642Z,85.16
2023-03-19T05:42:42.924Z,85.27
2023-03-19T05:45:11.241Z,85.54
2023-03-19T05:47:45.011Z,85.29
2023-03-19T05:50:12.366Z,84.85
2023-03-19T05:52:43.647Z,84.59
2023-03-19T05:55:11.131Z,84.80
2023-03-19T05:57:42.488Z,84.43
2023-03-19T06:00:14.924Z,83.86
2023-03-19T06:02:41.977Z,83.42
2023-03-19T06:05:26.621Z,82.89
2023-03-19T06:07:56.449Z,84.09
2023-03-19T06:10:52.686Z,83.25
2023-03-19T06:13:19.295Z,83.38
2023-03-19T06:15:53.600Z,83.45
2023-03-19T06:18:27.699Z,83.31
2023-03-19T06:20:54.679Z,81.62
2023-03-19T06:23:21.469Z,81.92
2023-03-19T06:25:48.662Z,81.33
2023-03-19T06:28:17.592Z,82.40
2023-03-19T06:30:45.252Z,82.48
2023-03-19T06:33:43.887Z,82.00
2023-03-19T06:36:10.534Z,81.53
2023-03-19T06:38:37.606Z,81.56
2023-03-19T06:41:04.500Z,80.82
2023-03-19T06:43:31.980Z,79.87
2023-03-19T06:45:58.649Z,80.95
2023-03-19T06:48:25.297Z,81.10
2023-03-19T06:50:51.863Z,81.96
2023-03-19T06:53:18.578Z,82.68
2023-03-19T06:55:46.904Z,80.87
2023-03-19T06:58:13.458Z,82.41
2023-03-19T07:00:40.164Z,83.16
2023-03-19T07:03:07.538Z,82.96
2023-03-19T07:05:34.232Z,82.61
2023-03-19T07:08:01.026Z,83.01
2023-03-19T07:10:27.717Z,83.85
2023-03-19T07:12:54.349Z,83.65
2023-03-19T07:15:21.669Z,84.53
2023-03-19T07:17:48.746Z,85.27
2023-03-19T07:20:16.265Z,85.49
2023-03-19T07:22:42.835Z,86.85
2023-03-19T07:25:09.634Z,86.72
2023-03-19T07:27:36.230Z,86.71
2023-03-19T07:30:02.878Z,86.11
2023-03-19T07:32:29.491Z,86.19
2023-03-19T07:34:56.243Z,85.79
2023-03-19T07:37:22.824Z,85.72
2023-03-19T07:39:49.400Z,85.68
2023-03-19T07:42:15.976Z,85.81
2023-03-19T07:44:42.580Z,86.33
2023-03-19T07:47:22.517Z,86.07
2023-03-19T07:49:52.950Z,85.17
2023-03-19T07:52:19.524Z,85.35
2023-03-19T07:54:46.102Z,85.15
2023-03-19T07:57:12.710Z,84.76
2023-03-19T07:59:39.263Z,85.46
2023-03-19T08:02:06.565Z,86.01
2023-03-19T08:04:33.252Z,86.84
2023-03-19T08:07:00.762Z,86.61
2023-03-19T08:09:27.632Z,86.42
2023-03-19T08:11:54.185Z,86.41
2023-03-19T08:14:22.610Z,85.53
2023-03-19T08:16:49.519Z,84.94
2023-03-19T08:19:16.892Z,85.41
2023-03-19T08:21:43.491Z,85.45
2023-03-19T08:24:10.062Z,85.88
2023-03-19T08:26:37.687Z,86.11
2023-03-19T08:29:04.322Z,86.06
2023-03-19T08:31:30.942Z,86.19
2023-03-19T08:34:00.198Z,85.32
2023-03-19T08:36:27.524Z,85.84
2023-03-19T08:38:54.959Z,84.86
2023-03-19T08:41:22.641Z,85.46
2023-03-19T08:43:49.593Z,86.32
2023-03-19T08:46:16.505Z,89.04
2023-03-19T08:48:43.416Z,87.19
2023-03-19T08:51:10.565Z,86.70
2023-03-19T08:53:38.026Z,86.17
2023-03-19T08:56:07.767Z,89.74
2023-03-19T08:58:34.435Z,90.13
2023-03-19T09:01:04.976Z,91.74
2023-03-19T09:03:32.122Z,91.02
2023-03-19T09:06:00.949Z,89.73
2023-03-19T09:08:28.779Z,88.02
2023-03-19T09:10:56.186Z,87.19
2023-03-19T09:13:23.100Z,86.45
2023-03-19T09:15:50.753Z,85.98
2023-03-19T09:18:18.015Z,87.23
2023-03-19T09:20:45.400Z,85.71
2023-03-19T09:23:11.963Z,86.30
2023-03-19T09:25:38.517Z,85.68
2023-03-19T09:28:05.123Z,87.19
2023-03-19T09:30:31.946Z,88.10
2023-03-19T09:32:58.578Z,87.91
2023-03-19T09:35:26.688Z,87.78
2023-03-19T09:37:53.252Z,87.87
2023-03-19T09:40:24.289Z,86.24
2023-03-19T09:43:28.545Z,87.15
2023-03-19T09:45:55.161Z,88.79
2023-03-19T09:48:34.194Z,88.00
2023-03-19T09:51:03.613Z,86.88
2023-03-19T09:54:01.800Z,86.31
2023-03-19T09:56:28.409Z,86.00
2023-03-19T09:58:55.084Z,85.88
2023-03-19T10:01:33.789Z,85.56
2023-03-19T10:04:16.305Z,85.46
2023-03-19T10:06:43.053Z,84.72
2023-03-19T10:09:28.144Z,83.97
2023-03-19T10:12:07.480Z,83.78
2023-03-19T10:14:55.328Z,84.85
2023-03-19T10:17:29.206Z,83.96
2023-03-19T10:19:59.902Z,82.46
2023-03-19T10:22:32.352Z,81.61
2023-03-19T10:24:59.550Z,81.68
2023-03-19T10:27:28.719Z,80.75
2023-03-19T10:29:56.068Z,77.52
2023-03-19T10:32:43.228Z,76.50
2023-03-19T10:35:22.474Z,76.50
2023-03-19T10:37:50.700Z,78.02
2023-03-19T10:40:24.716Z,77.67
2023-03-19T10:43:13.750Z,77.54
2023-03-19T10:45:40.742Z,80.35
2023-03-19T10:48:13.192Z,80.11
2023-03-19T10:50:52.302Z,76.10
2023-03-19T10:53:18.750Z,76.06
2023-03-19T10:55:51.687Z,74.45
2023-03-19T10:58:21.066Z,74.61
2023-03-19T11:00:49.947Z,73.92
2023-03-19T11:03:33.142Z,74.05
2023-03-19T11:06:17.491Z,71.25
2023-03-19T11:08:53.600Z,72.38
2023-03-19T11:11:43.056Z,72.05
2023-03-19T11:14:21.723Z,73.00
2023-03-19T11:16:49.877Z,72.84
2023-03-19T11:19:22.639Z,73.75
2023-03-19T11:22:11.628Z,71.75
2023-03-19T11:24:42.970Z,72.93
2023-03-19T11:27:10.104Z,73.93
2023-03-19T11:29:41.741Z,73.22
2023-03-19T11:32:31.928Z,71.00
2023-03-19T11:35:03.822Z,72.72
2023-03-19T11:37:39.396Z,73.01
2023-03-19T11:40:17.695Z,73.46
2023-03-19T11:42:53.241Z,73.51
2023-03-19T11:45:33.925Z,71.62
2023-03-19T11:48:18.677Z,72.72
2023-03-19T11:50:50.653Z,71.04
2023-03-19T11:53:23.867Z,72.74
2023-03-19T11:56:08.222Z,70.94
2023-03-19T11:58:58.638Z,71.74
2023-03-19T12:02:04.345Z,72.64
2023-03-19T12:04:58.857Z,71.88
2023-03-19T12:07:38.382Z,71.71
2023-03-19T12:10:24.222Z,72.39
2023-03-19T12:13:19.791Z,74.93
2023-03-19T12:16:03.290Z,74.32
2023-03-19T12:18:55.204Z,75.25
2023-03-19T12:21:29.488Z,76.32
2023-03-19T12:24:03.593Z,74.63
2023-03-19T12:27:02.694Z,76.59
2023-03-19T12:29:58.201Z,76.22
2023-03-19T12:32:30.646Z,74.64
2023-03-19T12:35:09.381Z,75.08
2023-03-19T12:37:47.026Z,74.19
2023-03-19T12:40:32.405Z,71.40
2023-03-19T12:43:00.995Z,73.38
2023-03-19T12:45:41.314Z,69.41
2023-03-19T12:48:12.378Z,64.08
2023-03-19T12:50:40.917Z,61.89
2023-03-19T12:53:12.002Z,61.33
2023-03-19T12:55:49.957Z,59.12
2023-03-19T12:58:31.380Z,60.60
2023-03-19T13:01:09.129Z,58.41
2023-03-19T13:03:42.376Z,58.73
2023-03-19T13:06:12.742Z,57.03
2023-03-19T13:08:42.539Z,55.59
2023-03-19T13:11:17.599Z,53.89
2023-03-19T13:13:49.487Z,53.52
2023-03-19T13:16:40.229Z,55.83
2023-03-19T13:19:21.670Z,55.14
2023-03-19T13:21:52.097Z,56.47
2023-03-19T13:24:28.405Z,54.25
2023-03-19T13:26:56.306Z,55.92
2023-03-19T13:29:25.716Z,52.75
2023-03-19T13:31:53.713Z,52.65
2023-03-19T13:34:24.291Z,51.56
2023-03-19T13:37:18.756Z,50.94
2023-03-19T13:39:48.403Z,52.12
2023-03-19T13:42:38.433Z,50.55
2023-03-19T13:45:35.052Z,52.07
2023-03-19T13:48:33.264Z,55.96
2023-03-19T13:51:18.171Z,55.29
2023-03-19T13:54:01.246Z,52.78
2023-03-19T13:56:30.588Z,51.23
2023-03-19T13:59:15.803Z,51.09
2023-03-19T14:01:45.730Z,52.77
2023-03-19T14:04:20.903Z,52.40
2023-03-19T14:06:56.316Z,55.35
2023-03-19T14:09:35.023Z,52.68
2023-03-19T14:12:23.134Z,52.74
2023-03-19T14:15:07.351Z,52.23
2023-03-19T14:17:37.182Z,52.01
2023-03-19T14:20:26.647Z,51.46
2023-03-19T14:23:08.958Z,51.94
2023-03-19T14:26:05.676Z,53.70
2023-03-19T14:28:45.129Z,51.03
2023-03-19T14:31:30.412Z,51.30
2023-03-19T14:34:02.950Z,51.10
2023-03-19T14:36:30.289Z,51.25
2023-03-19T14:39:16.026Z,50.88
2023-03-19T14:41:46.699Z,50.64
2023-03-19T14:44:51.665Z,51.83
2023-03-19T14:47:24.412Z,52.21
2023-03-19T14:49:55.500Z,51.99
2023-03-19T14:52:32.528Z,51.82
2023-03-19T14:55:12.851Z,51.67
2023-03-19T14:57:39.481Z,51.20
2023-03-19T15:00:14.404Z,52.02
2023-03-19T15:02:44.432Z,50.79
2023-03-19T15:05:25.545Z,51.78
2023-03-19T15:07:55.577Z,52.00
2023-03-19T15:10:28.661Z,52.35
2023-03-19T15:13:08.595Z,52.75
2023-03-19T15:15:40.360Z,52.26
2023-03-19T15:18:11.924Z,53.21
2023-03-19T15:20:54.289Z,53.84
2023-03-19T15:23:27.129Z,51.98
2023-03-19T15:26:01.094Z,51.25
2023-03-19T15:28:29.853Z,51.53
2023-03-19T15:31:14.521Z,50.11
2023-03-19T15:33:48.230Z,51.80
2023-03-19T15:36:26.053Z,49.47
2023-03-19T15:38:57.044Z,50.23
2023-03-19T15:41:25.714Z,51.82
2023-03-19T15:43:52.487Z,53.91
2023-03-19T15:46:23.247Z,52.82
2023-03-19T15:48:58.636Z,50.76
2023-03-19T15:51:27.059Z,51.22
2023-03-19T15:53:56.332Z,51.21
2023-03-19T15:56:24.147Z,51.66
2023-03-19T15:58:53.392Z,51.62
2023-03-19T16:01:20.413Z,51.61
2023-03-19T16:04:05.884Z,52.62
2023-03-19T16:06:36.663Z,52.16
2023-03-19T16:09:19.710Z,51.54
2023-03-19T16:11:46.683Z,52.01
2023-03-19T16:14:19.114Z,53.59
2023-03-19T16:16:47.084Z,52.86
2023-03-19T16:19:35.906Z,53.81
2023-03-19T16:22:06.459Z,54.07
2023-03-19T16:24:37.793Z,52.28
2023-03-19T16:27:07.082Z,52.75
2023-03-19T16:29:42.144Z,53.13
2023-03-19T16:32:11.590Z,55.03
2023-03-19T16:34:46.744Z,54.80
2023-03-19T16:37:34.562Z,53.08
2023-03-19T16:40:04.276Z,51.42
2023-03-19T16:42:37.146Z,52.07
2023-03-19T16:45:18.868Z,53.29
2023-03-19T16:47:50.273Z,54.68
2023-03-19T16:50:18.948Z,54.72
2023-03-19T16:52:46.745Z,52.85
2023-03-19T16:55:22.738Z,56.14
2023-03-19T16:57:54.874Z,58.53
2023-03-19T17:00:21.928Z,58.69
2023-03-19T17:02:48.475Z,60.13
2023-03-19T17:05:16.077Z,59.99
2023-03-19T17:07:42.926Z,61.11
2023-03-19T17:10:20.102Z,61.02
2023-03-19T17:12:49.293Z,61.01
2023-03-19T17:15:25.812Z,61.52
2023-03-19T17:17:52.810Z,61.87
2023-03-19T17:20:23.201Z,62.04
2023-03-19T17:22:49.778Z,62.85
2023-03-19T17:25:18.431Z,63.18
2023-03-19T17:27:45.479Z,62.63
2023-03-19T17:30:13.026Z,63.25
2023-03-19T17:32:42.019Z,63.60
2023-03-19T17:35:16.622Z,63.69
2023-03-19T17:37:43.611Z,63.57
2023-03-19T17:40:17.561Z,64.01
2023-03-19T17:42:44.278Z,63.88
2023-03-19T17:45:14.983Z,63.83
2023-03-19T17:47:43.525Z,63.93
2023-03-19T17:50:19.002Z,64.17
2023-03-19T17:52:47.044Z,64.19
2023-03-19T17:55:19.100Z,64.57
2023-03-19T17:57:45.664Z,64.93
2023-03-19T18:00:13.430Z,65.58
2023-03-19T18:02:41.251Z,65.91
2023-03-19T18:05:18.706Z,66.39
2023-03-19T18:07:46.131Z,66.24
2023-03-19T18:10:21.813Z,67.03
2023-03-19T18:12:49.458Z,67.45
2023-03-19T18:15:16.627Z,67.67
2023-03-19T18:17:47.559Z,67.64
2023-03-19T18:20:15.695Z,68.48
2023-03-19T18:22:42.254Z,68.66
2023-03-19T18:25:15.712Z,68.75
2023-03-19T18:27:42.395Z,69.02
2023-03-19T18:30:11.578Z,69.21
2023-03-19T18:32:40.895Z,69.64
2023-03-19T18:35:14.259Z,69.91
2023-03-19T18:37:40.835Z,69.91
2023-03-19T18:40:10.036Z,70.11
2023-03-19T18:42:36.641Z,70.20
2023-03-19T18:45:03.265Z,70.65
2023-03-19T18:47:30.408Z,70.33
2023-03-19T18:49:57.768Z,70.21
2023-03-19T18:52:24.602Z,70.55
2023-03-19T18:54:51.153Z,70.71
2023-03-19T18:57:17.742Z,70.65
2023-03-19T18:59:44.439Z,71.16
2023-03-19T19:02:40.407Z,71.24
2023-03-19T19:05:07.294Z,71.21
2023-03-19T19:07:34.081Z,71.44
2023-03-19T19:10:00.804Z,71.77
2023-03-19T19:12:27.444Z,71.81
2023-03-19T19:14:53.998Z,72.62
2023-03-19T19:17:24.158Z,72.57
2023-03-19T19:19:50.745Z,72.97
2023-03-19T19:22:18.993Z,73.18
2023-03-19T19:24:45.624Z,73.49
2023-03-19T19:27:17.802Z,73.25
2023-03-19T19:29:45.231Z,73.00
2023-03-19T19:32:22.734Z,73.33
2023-03-19T19:34:49.291Z,74.09
2023-03-19T19:37:17.251Z,73.88
2023-03-19T19:39:43.816Z,73.93
2023-03-19T19:42:15.568Z,74.24
2023-03-19T19:44:42.493Z,74.23
2023-03-19T19:47:16.746Z,74.22
2023-03-19T19:49:44.153Z,74.68
2023-03-19T19:52:18.422Z,74.70
2023-03-19T19:54:45.742Z,74.93
2023-03-19T19:57:22.573Z,75.11
2023-03-19T19:59:50.426Z,73.41
2023-03-19T20:02:25.432Z,73.55
2023-03-19T20:04:52.004Z,73.60
2023-03-19T20:07:18.571Z,73.73
2023-03-19T20:09:45.297Z,74.19
2023-03-19T20:12:21.984Z,73.40
2023-03-19T20:14:48.897Z,73.78
2023-03-19T20:17:16.822Z,72.73
2023-03-19T20:19:44.199Z,73.36
2023-03-19T20:22:10.921Z,72.90
2023-03-19T20:24:37.622Z,72.89
2023-03-19T20:27:15.943Z,71.68
2023-03-19T20:29:42.677Z,72.56
2023-03-19T20:32:37.845Z,72.57
2023-03-19T20:35:06.877Z,72.72
2023-03-19T20:37:33.465Z,72.54
2023-03-19T20:40:00.034Z,72.32
2023-03-19T20:42:27.612Z,71.96
2023-03-19T20:44:57.331Z,71.93
2023-03-19T20:47:25.859Z,72.85
2023-03-19T20:49:53.419Z,73.08
2023-03-19T20:52:20.427Z,72.98
2023-03-19T20:54:47.056Z,72.30
2023-03-19T20:57:15.781Z,72.42
2023-03-19T20:59:45.818Z,72.66
2023-03-19T21:02:24.493Z,72.63
2023-03-19T21:04:53.830Z,72.27
2023-03-19T21:07:33.957Z,72.52
2023-03-19T21:10:01.329Z,72.47
2023-03-19T21:12:33.151Z,72.34
2023-03-19T21:15:00.571Z,72.87
2023-03-19T21:17:28.796Z,72.49
2023-03-19T21:19:56.721Z,72.20
2023-03-19T21:22:28.579Z,72.59
2023-03-19T21:25:07.972Z,72.41
2023-03-19T21:27:35.599Z,72.42
2023-03-19T21:30:04.892Z,72.36
2023-03-19T21:32:31.971Z,72.70
2023-03-19T21:34:58.717Z,72.70
2023-03-19T21:37:25.566Z,72.77
2023-03-19T21:39:52.191Z,72.79
2023-03-19T21:42:21.291Z,73.29
2023-03-19T21:44:49.765Z,72.97
2023-03-19T21:47:21.577Z,73.26
2023-03-19T21:49:48.580Z,73.11
2023-03-19T21:52:18.773Z,72.83
2023-03-19T21:54:45.387Z,73.49
2023-03-19T21:57:15.982Z,73.45
2023-03-19T21:59:45.218Z,73.23
2023-03-19T22:02:26.938Z,73.42
2023-03-19T22:04:53.537Z,73.53
2023-03-19T22:07:20.129Z,73.16
2023-03-19T22:09:46.773Z,73.48
2023-03-19T22:12:27.439Z,73.15
2023-03-19T22:14:54.089Z,73.12
2023-03-19T22:17:22.722Z,73.17
2023-03-19T22:19:49.287Z,73.04
2023-03-19T22:22:15.942Z,73.40
2023-03-19T22:24:42.586Z,73.71
2023-03-19T22:27:15.950Z,73.48
2023-03-19T22:29:42.949Z,73.54
2023-03-19T22:32:17.425Z,73.70
2023-03-19T22:34:44.453Z,73.85
2023-03-19T22:37:26.110Z,73.83
2023-03-19T22:39:53.382Z,74.15
2023-03-19T22:42:20.171Z,74.10
2023-03-19T22:44:48.126Z,74.53
2023-03-19T22:47:22.717Z,74.33
2023-03-19T22:49:49.986Z,74.21
2023-03-19T22:52:16.613Z,74.34
2023-03-19T22:54:43.232Z,74.81
2023-03-19T22:57:14.966Z,74.55
2023-03-19T22:59:44.600Z,75.02
2023-03-19T23:02:14.530Z,74.83
2023-03-19T23:04:41.446Z,74.82
2023-03-19T23:07:12.579Z,75.22
2023-03-19T23:09:39.340Z,75.04
2023-03-19T23:14:34.251Z,75.18
2023-03-19T23:17:03.779Z,74.93
2023-03-19T23:19:32.324Z,75.11
2023-03-19T23:21:59.723Z,75.20
2023-03-19T23:24:26.689Z,75.21
2023-03-19T23:26:55.310Z,75.05
2023-03-19T23:29:29.786Z,74.83
2023-03-19T23:31:58.698Z,74.63
2023-03-19T23:34:26.035Z,74.28
2023-03-19T23:36:53.512Z,74.38
2023-03-19T23:39:21.137Z,74.18
2023-03-19T23:41:49.502Z,74.22
2023-03-19T23:44:17.833Z,74.31
2023-03-19T23:46:46.129Z,74.23
2023-03-19T23:49:18.232Z,74.32
2023-03-19T23:51:44.886Z,74.24
2023-03-19T23:54:37.033Z,73.81
2023-03-19T23:57:07.098Z,73.86
2023-03-19T23:59:36.097Z,74.31
